Time;durP1;ratioP1;P1;durP2;ratioP2;P2;SDS_P1;SDS_P2;PMS_P1;PMS_P2;Temp;Humidity;BMP_temperature;BMP_pressure;BME280_temperature;BME280_humidity;BME280_pressure;Samples;Min_cycle;Max_cycle;Signal;HPM_P1;HPM_P2
2024/02/02 00:00:15;;;;;;;23.35;5.47;;;4.50;99.90;;;;;;5070631;28;20028;-44
2024/02/02 00:02:40;;;;;;;42.05;6.82;;;4.50;99.90;;;;;;5069451;28;20055;-47
2024/02/02 00:05:07;;;;;;;29.77;7.15;;;4.50;99.90;;;;;;5070052;28;20418;-46
2024/02/02 00:07:33;;;;;;;41.92;8.13;;;4.50;99.90;;;;;;5069604;28;20028;-43
2024/02/02 00:09:59;;;;;;;35.22;6.32;;;4.50;99.90;;;;;;5069334;28;20017;-46
2024/02/02 00:12:25;;;;;;;28.00;6.28;;;4.60;99.90;;;;;;5069091;28;20057;-45
2024/02/02 00:14:51;;;;;;;26.70;5.47;;;4.60;99.90;;;;;;5069833;28;20036;-45
2024/02/02 00:17:19;;;;;;;35.78;7.07;;;4.60;99.90;;;;;;5069321;28;20028;-46
2024/02/02 00:19:45;;;;;;;28.90;5.88;;;4.70;99.90;;;;;;5069054;28;20037;-45
2024/02/02 00:22:11;;;;;;;30.35;6.13;;;4.70;99.90;;;;;;5067805;28;20024;-45
2024/02/02 00:24:37;;;;;;;18.02;5.35;;;4.70;99.90;;;;;;5069284;28;20023;-43
2024/02/02 00:27:02;;;;;;;41.53;6.82;;;4.70;99.90;;;;;;5069425;28;20021;-42
2024/02/02 00:29:28;;;;;;;37.55;7.05;;;4.70;99.90;;;;;;5069854;28;20029;-43
2024/02/02 00:31:54;;;;;;;26.95;6.93;;;4.70;99.90;;;;;;5068863;28;20025;-44
2024/02/02 00:34:19;;;;;;;31.63;5.80;;;4.70;99.90;;;;;;5069503;28;20028;-44
2024/02/02 00:36:45;;;;;;;30.08;6.10;;;4.70;99.90;;;;;;5077393;28;20020;-46
2024/02/02 00:39:11;;;;;;;32.45;6.63;;;4.80;99.90;;;;;;5068120;28;20115;-45
2024/02/02 00:41:36;;;;;;;26.95;6.10;;;4.80;99.90;;;;;;5069024;28;20029;-45
2024/02/02 00:44:04;;;;;;;30.30;5.88;;;4.80;99.90;;;;;;5069175;28;20016;-44
2024/02/02 00:46:29;;;;;;;36.75;7.93;;;4.80;99.90;;;;;;5069179;28;20028;-43
2024/02/02 00:48:55;;;;;;;32.50;6.25;;;4.80;99.90;;;;;;5067474;28;20093;-43
2024/02/02 00:51:21;;;;;;;31.83;7.70;;;4.80;99.90;;;;;;5069383;28;20382;-44
2024/02/02 00:53:46;;;;;;;35.30;6.60;;;4.80;99.90;;;;;;5067527;28;20378;-45
2024/02/02 00:56:13;;;;;;;23.77;5.15;;;4.80;99.90;;;;;;5074662;28;20017;-44
2024/02/02 00:58:38;;;;;;;29.55;6.43;;;4.80;99.90;;;;;;5068009;28;20031;-44
2024/02/02 01:01:05;;;;;;;33.38;6.78;;;4.80;99.90;;;;;;5065575;28;20020;-43
2024/02/02 01:03:33;;;;;;;33.38;7.57;;;4.90;99.90;;;;;;5072172;28;20025;-44
2024/02/02 01:05:59;;;;;;;26.70;6.30;;;4.90;99.90;;;;;;5070778;28;20034;-45
2024/02/02 01:08:25;;;;;;;32.40;6.07;;;4.90;99.90;;;;;;5072305;28;20023;-44
2024/02/02 01:10:51;;;;;;;32.90;6.10;;;4.90;99.90;;;;;;5068564;28;20020;-46
2024/02/02 01:13:16;;;;;;;31.60;6.25;;;4.80;99.90;;;;;;5068074;28;20040;-47
2024/02/02 01:15:42;;;;;;;43.05;6.70;;;4.90;99.90;;;;;;5068452;28;20020;-43
2024/02/02 01:18:08;;;;;;;27.77;6.30;;;4.90;99.90;;;;;;5075151;28;20038;-44
2024/02/02 01:20:34;;;;;;;31.60;6.13;;;4.90;99.90;;;;;;5068689;28;20108;-43
2024/02/02 01:23:00;;;;;;;29.70;6.47;;;4.90;99.90;;;;;;5076040;28;20055;-46
2024/02/02 01:25:29;;;;;;;24.95;5.20;;;4.90;99.90;;;;;;5074885;28;20066;-43
2024/02/02 01:27:55;;;;;;;32.08;6.32;;;5.00;99.90;;;;;;5068445;28;20020;-46
2024/02/02 01:30:20;;;;;;;29.80;5.82;;;4.90;99.90;;;;;;5068358;28;20025;-43
2024/02/02 01:32:46;;;;;;;39.55;7.45;;;5.00;99.90;;;;;;5075380;28;20027;-44
2024/02/02 01:35:12;;;;;;;31.85;6.70;;;5.00;99.90;;;;;;5068654;28;20020;-44
2024/02/02 01:37:37;;;;;;;26.13;6.40;;;5.00;99.90;;;;;;5066830;28;20540;-44
2024/02/02 01:40:04;;;;;;;39.00;6.90;;;5.00;99.90;;;;;;5075308;28;20028;-48
2024/02/02 01:42:29;;;;;;;32.88;7.07;;;5.00;99.90;;;;;;5074967;28;20028;-47
2024/02/02 01:44:55;;;;;;;24.55;6.65;;;5.10;99.90;;;;;;5068224;28;20090;-43
2024/02/02 01:47:20;;;;;;;24.90;6.60;;;5.00;99.90;;;;;;5068055;28;20016;-44
2024/02/02 01:49:48;;;;;;;32.78;7.72;;;5.00;99.90;;;;;;5066579;28;20012;-44
2024/02/02 01:52:13;;;;;;;25.65;7.72;;;5.10;99.90;;;;;;5071944;28;20552;-43
2024/02/02 01:54:39;;;;;;;36.83;9.65;;;5.10;99.90;;;;;;5085338;28;20114;-44
2024/02/02 01:57:05;;;;;;;29.40;7.40;;;5.10;99.90;;;;;;5067906;28;20044;-45
2024/02/02 01:59:31;;;;;;;33.63;7.82;;;5.10;99.90;;;;;;5068143;28;20039;-45
2024/02/02 02:01:57;;;;;;;33.30;7.50;;;5.10;99.90;;;;;;5074906;28;20033;-46
2024/02/02 02:04:23;;;;;;;26.75;6.72;;;5.10;99.90;;;;;;5068729;28;20374;-45
2024/02/02 02:06:48;;;;;;;31.45;7.65;;;5.10;99.90;;;;;;5068132;28;20096;-44
2024/02/02 02:09:14;;;;;;;27.83;7.93;;;5.10;99.90;;;;;;5075323;28;20099;-43
2024/02/02 02:11:41;;;;;;;35.75;7.93;;;5.10;99.90;;;;;;5068462;28;20059;-48
2024/02/02 02:14:07;;;;;;;43.67;9.95;;;5.20;99.90;;;;;;5067531;28;20019;-44
2024/02/02 02:16:33;;;;;;;31.42;7.40;;;5.20;99.90;;;;;;5067847;28;20025;-44
2024/02/02 02:18:58;;;;;;;28.17;6.75;;;5.20;99.90;;;;;;5067972;28;20410;-46
2024/02/02 02:21:28;;;;;;;39.00;8.82;;;5.20;99.90;;;;;;5073424;28;20506;-43
2024/02/02 02:23:54;;;;;;;40.55;8.35;;;5.20;99.90;;;;;;5075409;28;20182;-46
2024/02/02 02:26:20;;;;;;;40.30;7.40;;;5.20;99.90;;;;;;5067928;28;20044;-44
2024/02/02 02:28:48;;;;;;;31.35;6.45;;;5.20;99.90;;;;;;5067642;28;20044;-44
2024/02/02 02:31:15;;;;;;;33.85;7.53;;;5.30;99.90;;;;;;5067745;28;20020;-44
2024/02/02 02:33:41;;;;;;;31.92;7.28;;;5.20;99.90;;;;;;5065952;28;20055;-43
2024/02/02 02:36:07;;;;;;;27.50;8.00;;;5.20;99.90;;;;;;5067473;28;20025;-43
2024/02/02 02:38:33;;;;;;;38.22;7.65;;;5.30;99.90;;;;;;5067505;28;20375;-44
2024/02/02 02:40:59;;;;;;;30.30;9.15;;;5.30;99.90;;;;;;5067752;28;20023;-44
2024/02/02 02:43:27;;;;;;;25.70;7.93;;;5.30;99.90;;;;;;5070434;28;20474;-43
2024/02/02 02:45:53;;;;;;;41.80;9.23;;;5.30;99.90;;;;;;5071392;28;20024;-45
2024/02/02 02:48:19;;;;;;;22.67;7.10;;;5.30;99.90;;;;;;5075788;28;20016;-44
2024/02/02 02:50:44;;;;;;;25.05;7.40;;;5.30;99.90;;;;;;5073500;28;20017;-46
2024/02/02 02:53:10;;;;;;;26.75;7.10;;;5.30;99.90;;;;;;5070786;28;20402;-43
2024/02/02 02:55:35;;;;;;;33.33;7.75;;;5.30;99.90;;;;;;5071268;28;20031;-45
2024/02/02 02:58:01;;;;;;;29.67;7.05;;;5.30;99.90;;;;;;5073116;28;20028;-43
2024/02/02 03:00:28;;;;;;;36.55;8.10;;;5.30;99.90;;;;;;5076002;28;20103;-45
2024/02/02 03:02:54;;;;;;;36.53;7.18;;;5.30;99.90;;;;;;5069619;28;20017;-46
2024/02/02 03:05:20;;;;;;;29.50;6.95;;;5.30;99.90;;;;;;5071128;28;20020;-45
2024/02/02 03:07:46;;;;;;;31.25;6.68;;;5.30;99.90;;;;;;5070878;28;20064;-48
2024/02/02 03:10:12;;;;;;;32.55;8.48;;;5.30;99.90;;;;;;5070700;28;20036;-44
2024/02/02 03:12:38;;;;;;;32.03;8.88;;;5.20;99.90;;;;;;5070447;28;20454;-46
2024/02/02 03:15:03;;;;;;;32.22;8.77;;;5.30;99.90;;;;;;5069556;28;20024;-45
2024/02/02 03:17:29;;;;;;;35.72;10.38;;;5.30;99.90;;;;;;5076433;28;20360;-47
2024/02/02 03:19:55;;;;;;;36.17;8.85;;;5.30;99.90;;;;;;5071399;28;20020;-45
2024/02/02 03:22:20;;;;;;;28.83;8.95;;;5.30;99.90;;;;;;5070972;28;20020;-46
2024/02/02 03:24:46;;;;;;;43.20;9.77;;;5.30;99.90;;;;;;5076871;28;20016;-47
2024/02/02 03:27:12;;;;;;;37.60;11.73;;;5.30;99.90;;;;;;5073688;28;20107;-45
2024/02/02 03:29:37;;;;;;;39.03;11.07;;;5.30;99.90;;;;;;5074278;28;20563;-48
2024/02/02 03:32:03;;;;;;;36.03;10.60;;;5.30;99.90;;;;;;5076602;28;20115;-45
2024/02/02 03:34:29;;;;;;;49.80;11.80;;;5.30;99.90;;;;;;5069357;28;20028;-44
2024/02/02 03:36:54;;;;;;;36.22;10.18;;;5.30;99.90;;;;;;5077122;28;20358;-49
2024/02/02 03:39:20;;;;;;;25.85;11.05;;;5.20;99.90;;;;;;5074648;28;20036;-45
2024/02/02 03:41:46;;;;;;;39.53;12.23;;;5.20;99.90;;;;;;5076643;28;20429;-46
2024/02/02 03:44:11;;;;;;;36.28;10.95;;;5.20;99.90;;;;;;5070144;28;20036;-50
2024/02/02 03:46:37;;;;;;;38.10;12.02;;;5.20;99.90;;;;;;5070103;28;20029;-43
2024/02/02 03:49:02;;;;;;;34.95;11.00;;;5.20;99.90;;;;;;5071934;28;20078;-47
2024/02/02 03:51:28;;;;;;;37.42;12.25;;;5.20;99.90;;;;;;5074738;28;20025;-47
2024/02/02 03:53:54;;;;;;;36.17;13.52;;;5.20;99.90;;;;;;5068253;28;20021;-47
2024/02/02 03:56:19;;;;;;;34.72;12.02;;;5.20;99.90;;;;;;5070528;28;20032;-45
2024/02/02 03:58:45;;;;;;;26.60;10.75;;;5.20;99.90;;;;;;5069005;28;20393;-47
2024/02/02 04:01:11;;;;;;;53.63;12.23;;;5.20;99.90;;;;;;5070385;28;20579;-48
2024/02/02 04:03:36;;;;;;;27.73;10.88;;;5.20;99.90;;;;;;5069736;28;20070;-43
2024/02/02 04:06:02;;;;;;;35.70;10.38;;;5.20;99.90;;;;;;5069999;28;20072;-44
2024/02/02 04:08:29;;;;;;;31.45;10.30;;;5.20;99.90;;;;;;5070196;28;20529;-43
2024/02/02 04:10:55;;;;;;;48.72;11.20;;;5.20;99.90;;;;;;5069972;28;20330;-42
2024/02/02 04:13:20;;;;;;;33.85;10.88;;;5.20;99.90;;;;;;5068538;28;20095;-42
2024/02/02 04:15:46;;;;;;;28.42;9.50;;;5.20;99.90;;;;;;5069286;28;20028;-45
2024/02/02 04:18:12;;;;;;;32.47;9.80;;;5.20;99.90;;;;;;5069347;28;20063;-45
2024/02/02 04:20:38;;;;;;;36.22;9.60;;;5.20;99.90;;;;;;5069262;28;20056;-45
2024/02/02 04:23:03;;;;;;;23.33;9.60;;;5.20;99.90;;;;;;5074785;28;20028;-43
2024/02/02 04:25:29;;;;;;;26.48;10.02;;;5.30;99.90;;;;;;5069802;28;20044;-47
2024/02/02 04:27:56;;;;;;;31.58;9.05;;;5.30;99.90;;;;;;5067900;28;20243;-44
2024/02/02 04:30:21;;;;;;;33.53;9.40;;;5.30;99.90;;;;;;5074741;28;20104;-45
2024/02/02 04:32:47;;;;;;;30.27;9.82;;;5.30;99.90;;;;;;5069339;28;20051;-44
2024/02/02 04:35:12;;;;;;;30.65;8.55;;;5.20;99.90;;;;;;5068735;28;20463;-42
2024/02/02 04:37:39;;;;;;;35.38;10.35;;;5.30;99.90;;;;;;5068780;28;20025;-43
2024/02/02 04:40:05;;;;;;;37.00;11.75;;;5.30;99.90;;;;;;5069945;28;20508;-44
2024/02/02 04:42:31;;;;;;;28.77;9.48;;;5.30;99.90;;;;;;5070464;28;20493;-45
2024/02/02 04:44:56;;;;;;;34.33;9.27;;;5.30;99.90;;;;;;5072136;28;20118;-42
2024/02/02 04:47:22;;;;;;;22.20;8.35;;;5.30;99.90;;;;;;5068970;28;20145;-44
2024/02/02 04:49:48;;;;;;;32.97;10.50;;;5.30;99.90;;;;;;5068645;28;20186;-46
2024/02/02 04:52:14;;;;;;;33.67;9.55;;;5.30;99.90;;;;;;5068114;28;20375;-43
2024/02/02 04:54:39;;;;;;;37.22;9.98;;;5.30;99.90;;;;;;5068838;28;20409;-43
2024/02/02 04:57:05;;;;;;;32.80;9.57;;;5.30;99.90;;;;;;5068844;28;20035;-46
2024/02/02 04:59:30;;;;;;;28.70;9.50;;;5.30;99.90;;;;;;5070942;28;20037;-43
2024/02/02 05:01:57;;;;;;;37.70;10.93;;;5.30;99.90;;;;;;5079541;28;20082;-46
2024/02/02 05:04:22;;;;;;;31.80;9.15;;;5.30;99.90;;;;;;5069070;28;20012;-43
2024/02/02 05:06:48;;;;;;;39.70;11.35;;;5.40;99.90;;;;;;5068636;28;20021;-44
2024/02/02 05:09:13;;;;;;;29.55;10.93;;;5.40;99.90;;;;;;5074230;28;20522;-44
2024/02/02 05:11:39;;;;;;;33.55;10.77;;;5.40;99.90;;;;;;5068554;28;20043;-44
2024/02/02 05:14:05;;;;;;;42.72;11.07;;;5.40;99.90;;;;;;5069096;28;20552;-44
2024/02/02 05:16:30;;;;;;;40.33;12.73;;;5.40;99.90;;;;;;5068801;28;20214;-42
2024/02/02 05:18:56;;;;;;;40.67;12.43;;;5.40;99.90;;;;;;5068526;28;20032;-43
2024/02/02 05:21:21;;;;;;;32.85;12.30;;;5.40;99.90;;;;;;5068517;28;20028;-44
2024/02/02 05:23:47;;;;;;;40.30;12.15;;;5.40;99.90;;;;;;5068192;28;20022;-43
2024/02/02 05:26:13;;;;;;;28.05;12.80;;;5.40;99.90;;;;;;5068210;28;20024;-46
2024/02/02 05:28:38;;;;;;;55.70;13.00;;;5.40;99.90;;;;;;5068324;28;20016;-43
2024/02/02 05:31:04;;;;;;;30.63;12.93;;;5.40;99.90;;;;;;5067452;28;20443;-45
2024/02/02 05:33:29;;;;;;;44.30;13.75;;;5.40;99.90;;;;;;5068108;28;20033;-44
2024/02/02 05:35:55;;;;;;;38.47;12.38;;;5.50;99.90;;;;;;5068255;28;20504;-45
2024/02/02 05:38:20;;;;;;;33.63;12.75;;;5.50;99.90;;;;;;5068305;28;20077;-44
2024/02/02 05:40:46;;;;;;;33.35;12.52;;;5.40;99.90;;;;;;5064925;28;20090;-43
2024/02/02 05:43:12;;;;;;;37.75;12.77;;;5.50;99.90;;;;;;5067782;28;20025;-43
2024/02/02 05:45:39;;;;;;;38.55;13.27;;;5.50;99.90;;;;;;5068269;28;20054;-44
2024/02/02 05:48:04;;;;;;;39.10;13.80;;;5.50;99.90;;;;;;5068037;28;20096;-44
2024/02/02 05:50:30;;;;;;;37.00;15.05;;;5.50;99.90;;;;;;5067830;28;20016;-44
2024/02/02 05:52:56;;;;;;;28.33;14.13;;;5.50;99.90;;;;;;5068019;28;20048;-44
2024/02/02 05:55:21;;;;;;;50.70;14.70;;;5.50;99.90;;;;;;5067919;28;20032;-47
2024/02/02 05:57:47;;;;;;;40.47;14.23;;;5.50;99.90;;;;;;5066452;28;20146;-47
2024/02/02 06:00:13;;;;;;;43.60;15.82;;;5.50;99.90;;;;;;5067796;28;20072;-44
2024/02/02 06:02:38;;;;;;;33.13;13.88;;;5.60;99.90;;;;;;5072218;28;20415;-44
2024/02/02 06:05:04;;;;;;;42.65;15.02;;;5.60;99.90;;;;;;5073039;28;20016;-44
2024/02/02 06:07:30;;;;;;;35.13;15.55;;;5.60;99.90;;;;;;5076694;28;20479;-44
2024/02/02 06:09:55;;;;;;;45.42;16.58;;;5.60;99.90;;;;;;5073357;28;20133;-45
2024/02/02 06:12:21;;;;;;;43.30;17.10;;;5.60;99.90;;;;;;5067286;28;20056;-45
2024/02/02 06:14:46;;;;;;;46.45;17.05;;;5.60;99.90;;;;;;5066334;28;20069;-45
2024/02/02 06:17:12;;;;;;;47.13;18.58;;;5.60;99.90;;;;;;5068898;28;20029;-44
2024/02/02 06:19:38;;;;;;;39.47;16.25;;;5.60;99.90;;;;;;5069174;28;20692;-44
2024/02/02 06:22:03;;;;;;;42.58;19.25;;;5.60;99.90;;;;;;5068864;28;20039;-44
2024/02/02 06:24:29;;;;;;;36.83;17.98;;;5.60;99.90;;;;;;5067981;28;20583;-45
2024/02/02 06:26:54;;;;;;;37.15;17.60;;;5.60;99.90;;;;;;5069110;28;20507;-48
2024/02/02 06:29:20;;;;;;;42.80;17.55;;;5.60;99.90;;;;;;5069194;28;20017;-47
2024/02/02 06:31:45;;;;;;;47.78;18.42;;;5.70;99.90;;;;;;5069008;28;20025;-47
2024/02/02 06:34:11;;;;;;;36.70;17.77;;;5.60;99.90;;;;;;5067865;28;20052;-46
2024/02/02 06:36:37;;;;;;;40.63;18.27;;;5.60;99.90;;;;;;5071521;28;20099;-45
2024/02/02 06:39:02;;;;;;;42.50;17.23;;;5.70;99.90;;;;;;5067258;28;20037;-44
2024/02/02 06:41:28;;;;;;;35.70;18.75;;;5.70;99.90;;;;;;5067527;28;20021;-44
2024/02/02 06:43:53;;;;;;;42.55;17.90;;;5.70;99.90;;;;;;5071443;28;20467;-43
2024/02/02 06:46:19;;;;;;;38.45;17.95;;;5.70;99.90;;;;;;5066237;28;20119;-44
2024/02/02 06:48:45;;;;;;;41.78;17.58;;;5.80;99.90;;;;;;5066619;28;20051;-46
2024/02/02 06:51:11;;;;;;;46.30;18.38;;;5.70;99.90;;;;;;5068787;28;20452;-45
2024/02/02 06:53:37;;;;;;;44.67;16.77;;;5.70;99.90;;;;;;5067148;28;20104;-45
2024/02/02 06:56:29;;;;;;;43.90;17.45;;;5.70;99.90;;;;;;5067621;28;20574;-45
2024/02/02 06:58:54;;;;;;;34.58;16.35;;;5.80;99.90;;;;;;5060907;28;20037;-46
2024/02/02 07:01:20;;;;;;;39.30;17.30;;;5.70;99.90;;;;;;5067660;28;20059;-45
2024/02/02 07:03:47;;;;;;;43.30;16.77;;;5.70;99.90;;;;;;5067233;28;20039;-47
2024/02/02 07:06:13;;;;;;;38.47;16.77;;;5.70;99.90;;;;;;5067520;28;20089;-46
2024/02/02 07:08:39;;;;;;;38.33;15.52;;;5.70;99.90;;;;;;5067721;28;20078;-44
2024/02/02 07:11:05;;;;;;;43.15;16.98;;;5.70;99.90;;;;;;5067564;28;20012;-46
2024/02/02 07:13:40;;;;;;;45.10;15.90;;;5.70;99.90;;;;;;5067315;28;20351;-44
2024/02/02 07:16:24;;;;;;;37.17;17.42;;;5.70;99.90;;;;;;5064384;28;20040;-44
2024/02/02 07:18:49;;;;;;;49.22;16.27;;;5.70;99.90;;;;;;5067378;28;20032;-43
2024/02/02 07:21:15;;;;;;;33.92;14.57;;;5.70;99.90;;;;;;5067415;28;20402;-43
2024/02/02 07:23:44;;;;;;;43.55;16.38;;;5.70;99.90;;;;;;5064483;28;20107;-44
2024/02/02 07:26:27;;;;;;;45.92;16.08;;;5.60;99.90;;;;;;5067301;28;20016;-52
2024/02/02 07:28:52;;;;;;;33.10;14.27;;;5.60;99.90;;;;;;5067862;28;20024;-51
2024/02/02 07:31:37;;;;;;;37.15;15.82;;;5.60;99.90;;;;;;5070555;28;20012;-53
2024/02/02 07:34:25;;;;;;;42.78;15.93;;;5.60;99.90;;;;;;5067924;28;20021;-54
2024/02/02 07:36:50;;;;;;;33.20;13.75;;;5.60;99.90;;;;;;5069174;28;20118;-52
2024/02/02 07:39:42;;;;;;;32.40;14.55;;;5.70;99.90;;;;;;5070631;28;20485;-56
2024/02/02 07:42:08;;;;;;;38.58;15.02;;;5.70;99.90;;;;;;5067550;28;20070;-51
2024/02/02 07:44:33;;;;;;;37.20;14.55;;;5.70;99.90;;;;;;5070246;28;20409;-56
2024/02/02 07:46:59;;;;;;;36.17;14.23;;;5.70;99.90;;;;;;5075494;28;20458;-56
2024/02/02 07:49:25;;;;;;;31.52;13.45;;;5.70;99.90;;;;;;5071708;28;20024;-56
2024/02/02 07:51:50;;;;;;;27.13;12.55;;;5.80;99.90;;;;;;5071234;28;20048;-56
2024/02/02 07:54:16;;;;;;;32.30;12.52;;;5.80;99.90;;;;;;5071905;28;20025;-55
2024/02/02 07:56:42;;;;;;;32.65;11.57;;;5.80;99.90;;;;;;5071924;28;20063;-55
2024/02/02 07:59:07;;;;;;;30.65;11.52;;;5.90;99.90;;;;;;5075585;28;20025;-56
2024/02/02 08:01:34;;;;;;;31.70;12.30;;;5.90;99.90;;;;;;5071831;28;20027;-55
2024/02/02 08:04:00;;;;;;;22.73;10.55;;;5.90;99.90;;;;;;5075339;28;20040;-55
2024/02/02 08:06:26;;;;;;;29.30;10.48;;;5.90;99.90;;;;;;5071697;28;20020;-56
2024/02/02 08:08:52;;;;;;;29.52;10.35;;;5.90;99.90;;;;;;5071617;28;20016;-56
2024/02/02 08:11:17;;;;;;;26.13;10.88;;;5.90;99.90;;;;;;5075388;28;20029;-56
2024/02/02 08:13:43;;;;;;;33.03;11.10;;;6.00;99.90;;;;;;5069823;28;20016;-56
2024/02/02 08:16:09;;;;;;;27.15;9.68;;;6.00;99.90;;;;;;5078552;28;20038;-55
2024/02/02 08:18:36;;;;;;;27.00;9.57;;;6.00;99.90;;;;;;5074739;28;20461;-56
2024/02/02 08:21:02;;;;;;;23.45;9.18;;;6.10;99.90;;;;;;5078418;28;20122;-56
2024/02/02 08:23:28;;;;;;;23.70;9.00;;;6.10;99.90;;;;;;5070820;28;20478;-56
2024/02/02 08:25:54;;;;;;;20.33;9.20;;;6.20;99.90;;;;;;5071197;28;20121;-56
2024/02/02 08:28:19;;;;;;;19.77;8.40;;;6.20;99.90;;;;;;5074576;28;20041;-55
2024/02/02 08:30:45;;;;;;;22.67;8.63;;;6.30;99.90;;;;;;5071499;28;20028;-56
2024/02/02 08:33:11;;;;;;;24.88;8.63;;;6.30;99.90;;;;;;5074515;28;20033;-55
2024/02/02 08:35:36;;;;;;;23.10;8.80;;;6.40;99.90;;;;;;5074273;28;20020;-56
2024/02/02 08:38:06;;;;;;;24.85;7.68;;;6.40;99.90;;;;;;5074354;28;20024;-55
2024/02/02 08:40:39;;;;;;;19.27;7.63;;;6.40;99.90;;;;;;5069946;28;20040;-55
2024/02/02 08:43:22;;;;;;;17.85;7.18;;;6.40;99.90;;;;;;5069245;28;20059;-55
2024/02/02 08:45:57;;;;;;;25.20;8.25;;;6.50;99.90;;;;;;5069092;28;20103;-56
2024/02/02 08:48:32;;;;;;;26.17;7.28;;;6.50;99.90;;;;;;5070890;28;20095;-56
2024/02/02 08:50:58;;;;;;;17.80;7.88;;;6.50;99.90;;;;;;5070668;28;20027;-56
2024/02/02 08:53:25;;;;;;;31.45;7.85;;;6.50;99.90;;;;;;5070292;28;20040;-56
2024/02/02 08:55:51;;;;;;;20.52;7.25;;;6.60;99.90;;;;;;5070902;28;20074;-56
2024/02/02 08:58:24;;;;;;;30.52;7.28;;;6.70;99.90;;;;;;5073750;28;20150;-55
2024/02/02 09:00:51;;;;;;;15.00;6.63;;;6.80;99.90;;;;;;5070498;28;20036;-56
2024/02/02 09:03:40;;;;;;;27.83;7.60;;;6.80;99.90;;;;;;5070040;28;20059;-55
2024/02/02 09:06:12;;;;;;;22.88;6.53;;;6.90;99.90;;;;;;5065799;28;20032;-55
2024/02/02 09:08:40;;;;;;;22.77;6.68;;;6.90;99.90;;;;;;5070169;28;20366;-56
2024/02/02 09:11:11;;;;;;;28.88;7.00;;;7.00;99.90;;;;;;5070516;28;20027;-55
2024/02/02 09:13:40;;;;;;;20.13;7.55;;;7.10;99.90;;;;;;5070107;28;20021;-55
2024/02/02 09:16:08;;;;;;;19.58;7.03;;;7.10;99.90;;;;;;5073268;28;20078;-55
2024/02/02 09:18:37;;;;;;;28.30;8.70;;;7.10;99.90;;;;;;5071786;28;20117;-55
2024/02/02 09:21:05;;;;;;;19.77;7.30;;;7.20;99.90;;;;;;5064887;28;20104;-55
2024/02/02 09:23:32;;;;;;;21.02;6.55;;;7.10;99.90;;;;;;5069877;28;20024;-54
2024/02/02 09:26:18;;;;;;;29.38;6.72;;;7.20;99.90;;;;;;5069898;28;20478;-55
2024/02/02 09:28:45;;;;;;;34.97;7.38;;;7.20;99.90;;;;;;5067747;28;20132;-54
2024/02/02 09:31:20;;;;;;;20.80;6.90;;;7.20;99.90;;;;;;5069903;28;20066;-54
2024/02/02 09:33:51;;;;;;;30.05;7.85;;;7.30;99.90;;;;;;5068700;28;20103;-54
2024/02/02 09:36:20;;;;;;;19.88;6.40;;;7.20;99.90;;;;;;5069223;28;20031;-55
2024/02/02 09:38:57;;;;;;;24.88;6.18;;;7.20;99.90;;;;;;5067659;28;20038;-54
2024/02/02 09:41:41;;;;;;;39.20;7.03;;;7.20;99.90;;;;;;5072595;28;20027;-54
2024/02/02 09:44:09;;;;;;;23.52;8.13;;;7.20;99.90;;;;;;5068094;28;20100;-55
2024/02/02 09:46:57;;;;;;;22.63;6.85;;;7.30;99.90;;;;;;5069278;28;20546;-56
2024/02/02 09:49:26;;;;;;;30.08;8.18;;;7.30;99.90;;;;;;5065705;28;20021;-55
2024/02/02 09:52:12;;;;;;;28.38;6.25;;;7.30;99.90;;;;;;5070249;28;20058;-55
2024/02/02 09:54:49;;;;;;;28.30;6.30;;;7.40;99.90;;;;;;5066993;28;20103;-55
2024/02/02 09:57:35;;;;;;;26.00;7.60;;;7.40;99.90;;;;;;5068969;28;20023;-55
2024/02/02 10:00:48;;;;;;;22.15;5.93;;;7.40;99.90;;;;;;5069342;28;20461;-56
2024/02/02 10:03:50;;;;;;;29.73;7.07;;;7.40;99.90;;;;;;5051153;28;20361;-56
2024/02/02 10:06:16;;;;;;;25.95;6.53;;;7.50;99.90;;;;;;5066957;28;20027;-57
2024/02/02 10:09:05;;;;;;;25.92;7.00;;;7.40;99.90;;;;;;5071779;28;20016;-55
2024/02/02 10:11:55;;;;;;;20.50;6.45;;;7.50;99.90;;;;;;5069682;28;20025;-55
2024/02/02 10:14:58;;;;;;;21.75;7.03;;;7.50;99.90;;;;;;5065966;28;20517;-55
2024/02/02 10:17:29;;;;;;;24.55;7.03;;;7.50;99.90;;;;;;5066343;28;20051;-54
2024/02/02 10:20:15;;;;;;;20.88;6.38;;;7.50;99.90;;;;;;5069353;28;20024;-55
2024/02/02 10:22:52;;;;;;;22.80;6.80;;;7.50;99.90;;;;;;5068941;28;20039;-55
2024/02/02 10:25:41;;;;;;;20.25;6.60;;;7.50;99.90;;;;;;5069580;28;20379;-55
2024/02/02 10:28:24;;;;;;;32.70;7.72;;;7.50;99.90;;;;;;5069507;28;20021;-57
2024/02/02 10:31:12;;;;;;;23.77;6.95;;;7.50;99.90;;;;;;5069941;28;20373;-55
2024/02/02 10:33:53;;;;;;;34.88;7.35;;;7.60;99.90;;;;;;5068924;28;20093;-55
2024/02/02 10:36:42;;;;;;;31.00;7.75;;;7.60;99.90;;;;;;5071418;28;20115;-55
2024/02/02 10:39:26;;;;;;;31.13;7.68;;;7.80;99.90;;;;;;5066023;28;20060;-54
2024/02/02 10:42:12;;;;;;;24.25;8.32;;;7.80;99.90;;;;;;5067965;28;20016;-55
2024/02/02 10:44:42;;;;;;;25.17;7.00;;;7.80;99.90;;;;;;5071453;28;20568;-55
2024/02/02 10:47:26;;;;;;;31.25;7.60;;;7.80;99.90;;;;;;5068198;28;20021;-55
2024/02/02 10:50:01;;;;;;;32.92;9.20;;;7.80;99.90;;;;;;5070753;28;20023;-55
2024/02/02 10:52:51;;;;;;;25.60;9.82;;;7.80;99.90;;;;;;5068868;28;20098;-55
2024/02/02 10:55:26;;;;;;;27.17;9.18;;;7.80;99.90;;;;;;5066904;28;20036;-55
2024/02/02 10:58:03;;;;;;;26.05;8.50;;;7.70;99.90;;;;;;5069124;28;20661;-54
2024/02/02 11:00:37;;;;;;;25.52;8.23;;;7.70;99.90;;;;;;5069164;28;20082;-53
2024/02/02 11:03:02;;;;;;;24.35;8.90;;;7.60;99.90;;;;;;5062950;28;20029;-55
2024/02/02 11:05:52;;;;;;;32.25;8.98;;;7.60;99.90;;;;;;5072605;28;20135;-55
2024/02/02 11:08:32;;;;;;;29.52;10.27;;;7.60;99.90;;;;;;5068680;28;20024;-55
2024/02/02 11:11:16;;;;;;;33.60;10.00;;;7.60;99.90;;;;;;5072698;28;20505;-55
2024/02/02 11:13:51;;;;;;;28.00;9.35;;;7.60;99.90;;;;;;5075832;28;20052;-55
2024/02/02 11:16:38;;;;;;;26.05;9.10;;;7.60;99.90;;;;;;5072564;28;20028;-55
2024/02/02 11:19:42;;;;;;;31.83;10.55;;;7.50;99.90;;;;;;5066331;28;20052;-55
2024/02/02 11:22:28;;;;;;;26.90;8.88;;;7.60;99.90;;;;;;5058566;28;20064;-55
2024/02/02 11:25:09;;;;;;;32.97;10.68;;;7.60;99.90;;;;;;5086119;28;20059;-55
2024/02/02 11:27:53;;;;;;;31.30;9.80;;;7.50;99.90;;;;;;5070946;28;20020;-55
2024/02/02 11:30:45;;;;;;;33.60;9.07;;;7.50;99.90;;;;;;5068059;28;20036;-55
2024/02/02 11:33:29;;;;;;;30.38;10.15;;;7.50;99.90;;;;;;5071908;28;20123;-54
2024/02/02 11:36:26;;;;;;;35.45;11.38;;;7.60;99.90;;;;;;5072320;28;20032;-55
2024/02/02 11:39:11;;;;;;;32.83;9.93;;;7.60;99.90;;;;;;5072208;28;20112;-52
2024/02/02 11:41:39;;;;;;;24.02;10.45;;;7.60;99.90;;;;;;5073592;28;20029;-54
2024/02/02 11:44:05;;;;;;;30.35;9.50;;;7.60;99.90;;;;;;5065714;28;20024;-52
2024/02/02 11:46:34;;;;;;;30.65;9.80;;;7.60;99.90;;;;;;5072351;28;20025;-54
2024/02/02 11:49:08;;;;;;;42.27;11.30;;;7.60;99.90;;;;;;5072074;28;20385;-54
2024/02/02 11:51:46;;;;;;;26.70;10.07;;;7.60;99.90;;;;;;5072247;28;20056;-58
2024/02/02 11:54:55;;;;;;;29.50;10.57;;;7.50;99.90;;;;;;5066352;28;20099;-55
2024/02/02 11:57:23;;;;;;;31.90;10.40;;;7.60;99.90;;;;;;5058885;28;20042;-54
2024/02/02 11:59:51;;;;;;;36.30;10.82;;;7.60;99.90;;;;;;5073028;28;20545;-55
2024/02/02 12:02:29;;;;;;;24.75;10.63;;;7.60;99.90;;;;;;5070032;28;20036;-55
2024/02/02 12:05:13;;;;;;;27.20;10.93;;;7.60;99.90;;;;;;5074162;28;20409;-56
2024/02/02 12:07:47;;;;;;;31.27;9.43;;;7.60;99.90;;;;;;5072885;28;20028;-56
2024/02/02 12:10:19;;;;;;;29.50;9.77;;;7.60;99.90;;;;;;5072018;28;20029;-54
2024/02/02 12:13:06;;;;;;;27.13;10.45;;;7.60;99.90;;;;;;5071201;28;20025;-55
2024/02/02 12:15:32;;;;;;;38.60;11.98;;;7.60;99.90;;;;;;5071618;28;20028;-55
2024/02/02 12:17:57;;;;;;;36.75;11.75;;;7.60;99.90;;;;;;5071449;28;20036;-54
2024/02/02 12:20:23;;;;;;;35.75;10.65;;;7.60;99.90;;;;;;5072557;28;20025;-54
2024/02/02 12:22:50;;;;;;;29.38;10.88;;;7.60;99.90;;;;;;5071028;28;20735;-56
2024/02/02 12:25:16;;;;;;;28.13;10.23;;;7.60;99.90;;;;;;5071579;28;20027;-56
2024/02/02 12:27:42;;;;;;;33.95;11.02;;;7.60;99.90;;;;;;5069852;28;20021;-54
2024/02/02 12:30:10;;;;;;;33.67;10.40;;;7.60;99.90;;;;;;5071301;28;20052;-55
2024/02/02 12:32:36;;;;;;;29.80;10.10;;;7.50;99.90;;;;;;5070637;28;20537;-57
2024/02/02 12:35:04;;;;;;;37.17;10.20;;;7.60;99.90;;;;;;5071200;28;20059;-55
2024/02/02 12:37:44;;;;;;;32.92;11.25;;;7.60;99.90;;;;;;5063963;28;20028;-55
2024/02/02 12:40:12;;;;;;;25.70;10.63;;;7.60;99.90;;;;;;5064817;28;20371;-55
2024/02/02 12:42:38;;;;;;;30.92;9.93;;;7.60;99.90;;;;;;5070825;28;20020;-55
2024/02/02 12:45:04;;;;;;;32.83;11.02;;;7.60;99.90;;;;;;5070963;28;20489;-56
2024/02/02 12:47:30;;;;;;;28.73;11.15;;;7.70;99.90;;;;;;5070947;28;20584;-56
2024/02/02 12:49:55;;;;;;;40.17;10.68;;;7.60;99.90;;;;;;5070663;28;20021;-55
2024/02/02 12:52:21;;;;;;;30.73;11.07;;;7.60;99.90;;;;;;5069302;28;20032;-54
2024/02/02 12:54:47;;;;;;;32.38;12.32;;;7.60;99.90;;;;;;5070734;28;20029;-54